メインページ
METAR-TAF:

METAR-TAF

空港 :

ポンタ・デルガダ, !acores!, ポルトガル

ポンタ・デルガダ空港

緯度: 37-44N, 経度: 025-42W, 海抜: 71m

現時点の気象観測

当レポートは17分前の09:30(UTC)に作成
西/北西の風 14kt
気温 14°C
湿度 82%
気圧 1023 hPa
視程10km以上
高度1800ftの雲はほとんどない
高度4000ftの千切れ雲あり

METAR: LPPD 250930Z 29014KT 9999 FEW018 BKN040 14/11 Q1023

時間: 08:47 (09:47 UTC)

予報

当レポートは4時間47分前の05:00(UTC)に作成
予報は25日の 06時(UTC)から 26日の 06時(UTC)まで有効
北/北西の風 8kt
視程10km以上
高度2000ftの雲はほとんどない
高度4000ftの千切れ雲あり
25日の 06時(UTC)から 25日の 09時(UTC)まで徐々に
西/北西の風 12kt
高度1200ftの雲は散在している
高度2500ftの千切れ雲あり
25日の 09時(UTC)から 25日の 21時(UTC)まで一時的に
視程: 5000m
高度600ftの雲は散在している
高度1200ftの千切れ雲あり
小雨, 霧雨, 靄
確率 30% :
25日の 12時(UTC)から 25日の 18時(UTC)まで一時的に
視程: 3000m
高度300ftの雲は散在している
高度600ftの千切れ雲あり
雨, 霧雨, 靄
25日の 21時(UTC)から 25日の 24時(UTC)まで徐々に
北/北東の風 7kt
26日の 00時(UTC)から 26日の 03時(UTC)まで徐々に
南東の風 7kt
高度2000ftの雲はほとんどない
高度4000ftの千切れ雲あり

TAF: LPPD 250500Z 2506/2606 33008KT 9999 FEW020 BKN040 BECMG 2506/2509 30012KT SCT012 BKN025 TEMPO 2509/2521 5000 -RADZ BR SCT006 BKN012 PROB30 TEMPO 2512/2518 3000 RADZ BR SCT003 BKN006 BECMG 2521/2524 03007KT BECMG 2600/2603 13007KT FEW020 BKN040

4,000以上の空港の気象観測と天気予報(METAR報とTAF報)

利用可能な観測所は地図上に黄色い丸と赤い丸で示す。

丸の上にカーソルを重ねると観測所名を参照できる。

次にクリックすると気象観測と天気予報を参照できる。

マップの切り替え:黒色「×」印の緑ボタンをクリックして拡大、「-」印の緑ボタンをクリックして縮小、緑色の三角印をクリックして隣りの地図に切り替え


METAR-TAF: